Time;durP1;ratioP1;P1;durP2;ratioP2;P2;SDS_P1;SDS_P2;PMS_P1;PMS_P2;Temp;Humidity;BMP_temperature;BMP_pressure;BME280_temperature;BME280_humidity;BME280_pressure;Samples;Min_cycle;Max_cycle;Signal;HPM_P1;HPM_P2
2022/06/30 00:00:17;;;;;;;0.55;0.30;;;23.70;48.10;;;;;;6137225;28;20159;-44
2022/06/30 00:03:19;;;;;;;0.40;0.20;;;23.70;48.10;;;;;;6141202;28;20080;-46
2022/06/30 00:06:21;;;;;;;0.50;0.30;;;23.60;48.00;;;;;;6127848;28;20050;-43
2022/06/30 00:09:22;;;;;;;0.65;0.30;;;23.70;48.10;;;;;;6135728;28;20047;-45
2022/06/30 00:12:24;;;;;;;0.35;0.28;;;23.60;48.00;;;;;;6138032;28;20050;-47
2022/06/30 00:15:26;;;;;;;0.10;0.10;;;23.50;47.90;;;;;;6136844;28;20061;-43
2022/06/30 00:18:28;;;;;;;0.38;0.20;;;23.60;48.00;;;;;;6142513;28;20058;-43
2022/06/30 00:21:31;;;;;;;0.20;0.17;;;23.60;47.90;;;;;;6144253;28;20069;-45
2022/06/30 00:24:32;;;;;;;0.40;0.20;;;23.60;48.00;;;;;;6134828;28;20953;-44
2022/06/30 00:27:34;;;;;;;0.30;0.20;;;23.60;48.00;;;;;;6130039;28;20062;-43
2022/06/30 00:30:36;;;;;;;0.25;0.25;;;23.60;48.00;;;;;;6125598;28;20061;-45
2022/06/30 00:33:38;;;;;;;0.45;0.20;;;23.60;48.00;;;;;;6130525;28;20998;-44
2022/06/30 00:36:39;;;;;;;0.30;0.20;;;23.60;48.00;;;;;;6114848;28;20161;-44
2022/06/30 00:39:41;;;;;;;0.28;0.10;;;23.60;48.00;;;;;;6134479;28;20034;-46
2022/06/30 00:42:43;;;;;;;0.50;0.20;;;23.60;48.10;;;;;;6130956;28;20045;-44
2022/06/30 00:45:47;;;;;;;0.20;0.20;;;23.60;48.00;;;;;;6130719;28;20073;-48
2022/06/30 00:48:49;;;;;;;0.30;0.17;;;23.60;48.10;;;;;;6123653;28;20043;-45
2022/06/30 00:51:56;;;;;;;0.30;0.17;;;23.70;48.10;;;;;;6137880;28;20046;-43
2022/06/30 00:54:58;;;;;;;0.63;0.20;;;23.60;48.10;;;;;;6136432;28;20154;-45
2022/06/30 00:58:03;;;;;;;0.77;0.30;;;23.50;48.00;;;;;;6138615;28;20216;-45
2022/06/30 01:01:07;;;;;;;0.30;0.20;;;23.60;48.20;;;;;;6138783;28;20101;-46
2022/06/30 01:04:09;;;;;;;0.30;0.20;;;23.60;48.10;;;;;;6140815;28;20058;-45
2022/06/30 01:07:11;;;;;;;0.50;0.30;;;23.60;48.20;;;;;;6127033;28;20947;-43
2022/06/30 01:13:29;;;;;;;0.20;0.10;;;23.70;48.30;;;;;;6145690;28;20200;-45
2022/06/30 01:16:31;;;;;;;0.95;0.22;;;23.60;48.20;;;;;;6141415;28;20053;-44
2022/06/30 01:19:33;;;;;;;0.43;0.30;;;23.60;48.30;;;;;;6138438;28;20081;-43
2022/06/30 01:22:36;;;;;;;0.40;0.30;;;23.60;48.30;;;;;;6145524;28;20051;-44
2022/06/30 01:25:38;;;;;;;0.38;0.20;;;23.60;48.30;;;;;;6127344;28;20049;-43
2022/06/30 01:28:39;;;;;;;0.65;0.25;;;23.60;48.30;;;;;;6142376;28;20108;-45
2022/06/30 01:31:41;;;;;;;0.30;0.20;;;23.60;48.40;;;;;;6138496;28;20131;-44
2022/06/30 01:34:43;;;;;;;0.10;0.10;;;23.60;48.40;;;;;;6140766;28;20765;-45
2022/06/30 01:37:48;;;;;;;0.20;0.17;;;23.60;48.40;;;;;;6139321;28;20050;-44
2022/06/30 01:40:49;;;;;;;0.40;0.20;;;23.50;48.30;;;;;;6140703;28;20042;-43
2022/06/30 01:43:51;;;;;;;0.43;0.20;;;23.60;48.40;;;;;;6142899;28;20042;-49
2022/06/30 01:46:53;;;;;;;0.35;0.25;;;23.50;48.40;;;;;;6140127;28;20127;-45
2022/06/30 01:49:54;;;;;;;0.50;0.20;;;23.50;48.40;;;;;;6136840;28;20068;-45
2022/06/30 01:52:57;;;;;;;0.57;0.20;;;23.50;48.40;;;;;;6139855;28;20046;-43
2022/06/30 01:55:59;;;;;;;0.20;0.20;;;23.60;48.40;;;;;;6144598;28;20141;-44
2022/06/30 01:59:00;;;;;;;;;;;23.50;48.40;;;;;;6142355;28;20101;-44
2022/06/30 02:02:02;;;;;;;0.65;0.35;;;23.60;48.50;;;;;;6139436;28;19932;-43
2022/06/30 02:05:04;;;;;;;0.22;0.10;;;23.50;48.40;;;;;;6143702;28;20085;-48
2022/06/30 02:08:07;;;;;;;0.40;0.10;;;23.50;48.40;;;;;;6127573;28;20169;-45
2022/06/30 02:11:08;;;;;;;0.28;0.20;;;23.50;48.50;;;;;;6141405;28;20840;-45
2022/06/30 02:14:10;;;;;;;0.10;0.10;;;23.50;48.40;;;;;;6126962;28;20100;-44
2022/06/30 02:17:12;;;;;;;0.77;0.20;;;23.50;48.50;;;;;;6130610;28;20129;-43
2022/06/30 02:20:18;;;;;;;0.40;0.20;;;23.50;48.50;;;;;;6139922;28;20140;-44
2022/06/30 02:23:20;;;;;;;0.13;0.10;;;23.50;48.50;;;;;;6126798;28;20047;-44
2022/06/30 02:26:22;;;;;;;0.20;0.20;;;23.50;48.50;;;;;;6140999;28;20858;-44
2022/06/30 02:29:24;;;;;;;0.73;0.20;;;23.50;48.50;;;;;;6142316;28;20148;-43
2022/06/30 02:32:25;;;;;;;0.20;0.10;;;23.40;48.40;;;;;;6143544;28;20160;-44
2022/06/30 02:35:27;;;;;;;0.60;0.30;;;23.50;48.50;;;;;;6139418;28;20146;-44
2022/06/30 02:38:30;;;;;;;0.20;0.20;;;23.40;48.40;;;;;;6146426;28;20054;-45
2022/06/30 02:41:31;;;;;;;0.10;0.10;;;23.60;48.50;;;;;;6146523;28;20141;-44
2022/06/30 02:44:33;;;;;;;0.32;0.17;;;23.50;48.50;;;;;;6139131;28;20058;-44
2022/06/30 02:47:36;;;;;;;0.40;0.20;;;23.60;48.60;;;;;;6141894;28;20933;-44
2022/06/30 02:50:38;;;;;;;0.65;0.20;;;23.40;48.50;;;;;;6142289;28;20054;-43
2022/06/30 02:53:40;;;;;;;1.10;0.15;;;23.40;48.50;;;;;;6142903;28;20639;-45
2022/06/30 02:56:41;;;;;;;0.28;0.10;;;23.40;48.50;;;;;;6141197;28;20045;-47
2022/06/30 02:59:43;;;;;;;0.63;0.20;;;23.40;48.40;;;;;;6141645;28;20133;-44
2022/06/30 03:02:46;;;;;;;0.40;0.20;;;23.40;48.50;;;;;;6141271;28;20148;-45
2022/06/30 03:05:48;;;;;;;0.63;0.20;;;23.40;48.40;;;;;;6143613;28;20068;-48
2022/06/30 03:08:50;;;;;;;0.30;0.10;;;23.50;48.50;;;;;;6142352;28;20157;-43
2022/06/30 03:11:52;;;;;;;0.20;0.20;;;23.30;48.40;;;;;;6136977;28;20034;-43
2022/06/30 03:14:54;;;;;;;0.28;0.10;;;23.40;48.40;;;;;;6139851;28;20046;-44
2022/06/30 03:17:56;;;;;;;1.35;0.17;;;23.40;48.40;;;;;;6141348;28;20554;-45
2022/06/30 03:20:58;;;;;;;0.40;0.10;;;23.40;48.40;;;;;;6141220;28;20048;-43
2022/06/30 03:24:00;;;;;;;0.55;0.20;;;23.40;48.40;;;;;;6137475;28;20085;-45
2022/06/30 03:27:02;;;;;;;0.10;0.10;;;23.50;48.50;;;;;;6142502;28;20082;-44
2022/06/30 03:30:04;;;;;;;0.55;0.10;;;23.30;48.40;;;;;;6138140;28;20169;-43
2022/06/30 03:33:06;;;;;;;1.23;0.32;;;23.30;48.40;;;;;;6140480;28;20569;-43
2022/06/30 03:36:07;;;;;;;1.27;0.10;;;23.40;48.60;;;;;;6143966;28;20123;-46
2022/06/30 03:39:09;;;;;;;1.27;0.20;;;23.40;48.50;;;;;;6138057;28;20181;-45
2022/06/30 03:42:11;;;;;;;0.30;0.20;;;23.40;48.50;;;;;;6144447;28;20038;-45
2022/06/30 03:45:12;;;;;;;0.52;0.20;;;23.40;48.50;;;;;;6156072;28;20046;-46
2022/06/30 03:48:14;;;;;;;0.32;0.20;;;23.40;48.60;;;;;;6149484;28;20100;-43
2022/06/30 03:51:16;;;;;;;0.25;0.17;;;23.30;48.50;;;;;;6144404;28;20050;-44
2022/06/30 03:54:19;;;;;;;0.52;0.20;;;23.30;48.60;;;;;;6140665;28;20080;-42
2022/06/30 03:57:21;;;;;;;0.40;0.20;;;23.30;48.50;;;;;;6142316;28;20047;-43
2022/06/30 04:00:23;;;;;;;1.13;0.17;;;23.30;48.50;;;;;;6144716;28;20058;-43
2022/06/30 04:03:24;;;;;;;1.67;0.30;;;23.30;48.50;;;;;;6142212;28;20112;-45
2022/06/30 04:06:26;;;;;;;1.20;0.20;;;23.30;48.50;;;;;;6147270;28;20934;-43
2022/06/30 04:09:28;;;;;;;0.40;0.20;;;23.30;48.50;;;;;;6149136;28;20812;-45
2022/06/30 04:12:30;;;;;;;0.40;0.10;;;23.30;48.50;;;;;;6146851;28;20166;-43
2022/06/30 04:15:31;;;;;;;0.77;0.10;;;23.30;48.50;;;;;;6140143;28;20042;-44
2022/06/30 04:18:33;;;;;;;0.28;0.10;;;23.20;48.40;;;;;;6124019;28;20057;-46
2022/06/30 04:21:35;;;;;;;0.30;0.20;;;23.40;48.50;;;;;;6138635;28;20046;-43
2022/06/30 04:24:37;;;;;;;0.20;0.10;;;23.30;48.40;;;;;;6147474;28;20039;-47
2022/06/30 04:27:43;;;;;;;0.77;0.10;;;23.30;48.40;;;;;;6142238;28;20046;-43
2022/06/30 04:34:00;;;;;;;0.13;0.10;;;23.30;48.40;;;;;;6120953;28;20038;-44
2022/06/30 04:37:02;;;;;;;0.10;0.10;;;23.30;48.40;;;;;;6137210;28;20055;-46
2022/06/30 04:43:22;;;;;;;0.40;0.10;;;23.30;48.40;;;;;;6121298;28;20169;-44
2022/06/30 04:46:24;;;;;;;0.28;0.20;;;23.30;48.40;;;;;;6122760;28;20050;-43
2022/06/30 04:49:26;;;;;;;0.30;0.13;;;23.30;48.40;;;;;;6137299;28;20910;-42
2022/06/30 04:52:28;;;;;;;0.43;0.20;;;23.20;48.40;;;;;;6132860;28;20034;-43
2022/06/30 04:55:31;;;;;;;0.20;0.10;;;23.20;48.30;;;;;;6142680;28;20081;-43
2022/06/30 04:58:32;;;;;;;0.28;0.10;;;23.30;48.40;;;;;;6143198;28;20152;-43
2022/06/30 05:01:34;;;;;;;0.40;0.10;;;23.20;48.30;;;;;;6132044;28;20237;-44
2022/06/30 05:04:36;;;;;;;0.10;0.10;;;23.30;48.40;;;;;;6143373;28;20065;-44
2022/06/30 05:07:37;;;;;;;0.45;0.20;;;23.30;48.40;;;;;;6141511;28;20971;-47
2022/06/30 05:10:39;;;;;;;0.28;0.20;;;23.30;48.40;;;;;;6142958;28;20054;-43
2022/06/30 05:13:41;;;;;;;0.20;0.10;;;23.20;48.40;;;;;;6139905;28;20045;-43
2022/06/30 05:16:43;;;;;;;0.30;0.15;;;23.20;48.30;;;;;;6145504;28;20074;-43
2022/06/30 05:19:44;;;;;;;0.10;0.10;;;23.20;48.40;;;;;;6143513;28;20050;-43
2022/06/30 05:22:46;;;;;;;0.28;0.10;;;23.20;48.00;;;;;;6141275;28;20113;-44
2022/06/30 05:29:10;;;;;;;1.27;0.10;;;23.20;48.50;;;;;;6139942;28;20060;-44
2022/06/30 05:32:12;;;;;;;0.73;0.20;;;23.30;48.50;;;;;;6140333;28;20039;-44
2022/06/30 05:35:13;;;;;;;0.32;0.17;;;23.30;48.60;;;;;;6136329;28;20077;-43
2022/06/30 05:38:15;;;;;;;0.20;0.10;;;23.30;48.60;;;;;;6144280;28;20122;-44
2022/06/30 05:41:17;;;;;;;0.70;0.35;;;23.30;48.60;;;;;;6129239;28;20133;-43
2022/06/30 05:44:20;;;;;;;0.28;0.10;;;23.30;48.60;;;;;;6137587;28;20057;-45
2022/06/30 05:47:22;;;;;;;0.13;0.13;;;23.30;48.60;;;;;;6139496;28;20077;-44
2022/06/30 05:50:24;;;;;;;0.57;0.10;;;23.30;48.60;;;;;;6132895;28;20136;-43
2022/06/30 05:53:25;;;;;;;0.13;0.10;;;23.30;48.60;;;;;;6133905;28;20065;-46
2022/06/30 05:56:27;;;;;;;0.43;0.20;;;23.30;48.50;;;;;;6129102;28;20161;-43
2022/06/30 05:59:30;;;;;;;0.55;0.20;;;23.40;48.60;;;;;;6125839;28;20153;-43
2022/06/30 06:02:32;;;;;;;0.52;0.17;;;23.30;48.50;;;;;;6125395;28;20157;-44
2022/06/30 06:05:33;;;;;;;0.55;0.20;;;23.40;48.60;;;;;;6122709;28;20157;-45
2022/06/30 06:08:35;;;;;;;0.68;0.10;;;23.40;48.60;;;;;;6117648;28;20049;-43
2022/06/30 06:11:37;;;;;;;0.98;0.10;;;23.40;48.60;;;;;;6124409;28;22489;-43
2022/06/30 06:14:39;;;;;;;0.10;0.10;;;23.30;48.60;;;;;;6119190;28;21073;-44
2022/06/30 06:17:42;;;;;;;0.38;0.10;;;23.40;48.70;;;;;;6117331;28;20555;-43
2022/06/30 06:20:44;;;;;;;0.20;0.13;;;23.40;48.50;;;;;;6090917;28;20154;-46
2022/06/30 06:24:06;;;;;;;0.28;0.10;;;23.60;48.80;;;;;;6085763;28;20101;-43
2022/06/30 06:27:08;;;;;;;0.75;0.20;;;23.50;48.70;;;;;;6086604;28;20161;-43
2022/06/30 06:30:10;;;;;;;0.30;0.10;;;23.40;48.70;;;;;;6106354;28;20148;-43
2022/06/30 06:33:12;;;;;;;0.20;0.10;;;23.70;48.90;;;;;;6104237;28;20153;-44
2022/06/30 06:36:14;;;;;;;0.25;0.20;;;23.50;48.70;;;;;;6103327;28;20102;-47
2022/06/30 06:39:15;;;;;;;0.50;0.20;;;23.50;48.80;;;;;;6104528;28;20145;-42
2022/06/30 06:42:17;;;;;;;0.47;0.20;;;23.60;48.90;;;;;;6082983;28;20049;-45
2022/06/30 06:45:20;;;;;;;0.35;0.20;;;23.60;49.10;;;;;;6067881;28;20042;-43
2022/06/30 06:48:22;;;;;;;0.10;0.10;;;23.50;49.10;;;;;;6090996;28;20046;-43
2022/06/30 06:51:24;;;;;;;0.47;0.20;;;23.50;49.10;;;;;;6072672;28;20186;-45
2022/06/30 06:54:25;;;;;;;0.30;0.20;;;23.50;49.20;;;;;;6050578;28;20060;-43
2022/06/30 06:57:33;;;;;;;0.88;0.32;;;23.80;49.40;;;;;;6044812;28;20120;-42
2022/06/30 07:00:35;;;;;;;0.22;0.10;;;23.50;49.30;;;;;;6000606;28;20054;-43
2022/06/30 07:03:37;;;;;;;1.75;0.25;;;23.40;49.20;;;;;;6006157;28;21272;-45
2022/06/30 07:06:38;;;;;;;0.13;0.13;;;23.50;49.30;;;;;;5990655;28;20053;-42
2022/06/30 07:09:40;;;;;;;0.43;0.25;;;23.50;49.30;;;;;;5990807;28;20061;-44
2022/06/30 07:12:42;;;;;;;0.20;0.20;;;23.60;49.40;;;;;;5971188;28;20184;-43
2022/06/30 07:15:44;;;;;;;1.48;0.10;;;23.50;49.40;;;;;;5989222;28;20347;-44
2022/06/30 07:18:46;;;;;;;0.25;0.10;;;23.60;49.50;;;;;;5985165;28;20081;-45
2022/06/30 07:21:47;;;;;;;0.28;0.10;;;23.60;49.50;;;;;;6004511;28;20045;-46
2022/06/30 07:24:49;;;;;;;0.40;0.20;;;23.60;49.60;;;;;;5986810;28;20049;-43
2022/06/30 07:27:51;;;;;;;0.20;0.17;;;23.60;49.50;;;;;;6027582;28;20043;-44
2022/06/30 07:30:57;;;;;;;0.63;0.20;;;23.60;49.60;;;;;;5957404;28;20189;-44
2022/06/30 07:33:59;;;;;;;0.43;0.30;;;23.60;49.60;;;;;;5948147;28;20050;-45
2022/06/30 07:37:00;;;;;;;0.30;0.20;;;23.70;49.70;;;;;;5984304;28;20272;-43
2022/06/30 07:40:03;;;;;;;0.38;0.22;;;23.70;49.70;;;;;;5962980;28;22675;-43
2022/06/30 07:43:11;;;;;;;0.30;0.30;;;23.70;49.70;;;;;;5946917;28;20047;-46
2022/06/30 07:46:14;;;;;;;0.10;0.10;;;23.70;49.80;;;;;;5954242;28;20124;-44
2022/06/30 07:49:16;;;;;;;0.10;0.10;;;23.70;49.90;;;;;;5963208;28;20051;-47
2022/06/30 07:52:18;;;;;;;0.45;0.13;;;23.70;49.90;;;;;;5965318;28;20054;-44
2022/06/30 07:55:25;;;;;;;0.55;0.35;;;23.70;50.20;;;;;;5949787;28;21392;-44
2022/06/30 07:58:27;;;;;;;0.10;0.10;;;23.80;50.10;;;;;;5976904;28;20185;-44
2022/06/30 08:01:29;;;;;;;1.17;0.20;;;23.70;50.00;;;;;;5929670;28;20057;-47
2022/06/30 08:04:30;;;;;;;0.30;0.30;;;23.70;50.00;;;;;;5945177;28;20056;-46
2022/06/30 08:07:32;;;;;;;0.73;0.10;;;23.70;50.10;;;;;;5918889;28;22294;-43
2022/06/30 08:10:34;;;;;;;0.77;0.30;;;23.70;50.00;;;;;;5955925;28;20045;-43
2022/06/30 08:13:36;;;;;;;0.30;0.20;;;23.80;50.00;;;;;;5905744;28;20135;-45
2022/06/30 08:16:38;;;;;;;0.40;0.20;;;23.70;49.80;;;;;;5911740;28;20047;-44
2022/06/30 08:19:41;;;;;;;0.60;0.20;;;23.70;49.60;;;;;;5922910;28;21991;-46
2022/06/30 08:22:42;;;;;;;0.40;0.22;;;23.80;49.60;;;;;;5938753;28;20116;-46
2022/06/30 08:25:44;;;;;;;0.20;0.20;;;23.80;49.50;;;;;;5946370;28;21060;-43
2022/06/30 08:28:46;;;;;;;0.40;0.20;;;23.70;49.40;;;;;;5972073;28;20136;-45
2022/06/30 08:31:49;;;;;;;0.63;0.30;;;23.70;49.20;;;;;;5948181;28;20050;-45
2022/06/30 08:34:51;;;;;;;0.22;0.17;;;23.80;49.10;;;;;;5946995;28;20046;-45
2022/06/30 08:37:53;;;;;;;0.30;0.22;;;23.70;48.90;;;;;;5946773;28;20914;-45
2022/06/30 08:44:13;;;;;;;0.17;0.17;;;23.80;48.70;;;;;;5972920;28;20089;-45
2022/06/30 08:47:15;;;;;;;0.63;0.20;;;23.70;48.40;;;;;;5952691;28;20042;-43
2022/06/30 08:50:17;;;;;;;0.60;0.20;;;23.70;48.20;;;;;;5963041;28;20057;-44
2022/06/30 08:53:23;;;;;;;0.20;0.10;;;23.70;48.00;;;;;;5952292;28;20177;-46
2022/06/30 08:56:29;;;;;;;0.40;0.30;;;23.70;47.90;;;;;;5974321;28;20042;-45
2022/06/30 08:59:32;;;;;;;0.95;0.25;;;23.70;47.80;;;;;;5963034;28;29289;-44
2022/06/30 09:02:35;;;;;;;0.43;0.15;;;23.70;47.70;;;;;;5957570;28;20141;-46
2022/06/30 09:05:36;;;;;;;0.73;0.20;;;23.70;47.60;;;;;;5940157;28;20267;-44
2022/06/30 09:08:38;;;;;;;0.30;0.20;;;23.70;47.50;;;;;;5952114;28;20054;-44
2022/06/30 09:11:51;;;;;;;0.32;0.10;;;23.70;47.40;;;;;;5964544;28;20050;-43
2022/06/30 09:14:54;;;;;;;0.32;0.10;;;23.70;47.50;;;;;;5946029;28;20082;-45
2022/06/30 09:17:56;;;;;;;0.20;0.15;;;23.80;47.30;;;;;;5959533;28;20074;-46
2022/06/30 09:21:01;;;;;;;0.32;0.20;;;23.80;47.10;;;;;;5967652;28;20089;-43
2022/06/30 09:24:03;;;;;;;0.40;0.13;;;23.70;47.60;;;;;;5961579;28;20132;-44
2022/06/30 09:27:12;;;;;;;0.40;0.10;;;23.70;46.90;;;;;;5974818;28;20051;-45
2022/06/30 09:30:16;;;;;;;0.20;0.20;;;23.80;46.80;;;;;;5942943;28;20057;-44
2022/06/30 09:33:20;;;;;;;0.60;0.20;;;23.70;46.60;;;;;;5954298;28;20070;-44
2022/06/30 09:36:23;;;;;;;0.20;0.10;;;23.70;46.50;;;;;;5958984;28;20039;-45
2022/06/30 09:39:31;;;;;;;1.20;0.50;;;23.70;46.50;;;;;;5985705;28;20581;-45
2022/06/30 09:42:39;;;;;;;0.22;0.20;;;23.70;46.30;;;;;;5986797;28;20058;-46
2022/06/30 09:45:57;;;;;;;0.57;0.20;;;23.80;46.30;;;;;;5952839;28;21212;-44
2022/06/30 09:48:59;;;;;;;0.35;0.17;;;23.70;46.10;;;;;;5958486;28;20046;-47
2022/06/30 09:52:16;;;;;;;0.75;0.20;;;23.80;46.00;;;;;;5984272;28;20161;-45
2022/06/30 09:55:18;;;;;;;0.10;0.10;;;23.60;45.70;;;;;;5966593;28;20082;-44
2022/06/30 09:58:35;;;;;;;0.20;0.10;;;23.70;45.70;;;;;;5962600;28;20054;-48
2022/06/30 10:01:53;;;;;;;0.10;0.10;;;23.90;45.60;;;;;;5986158;28;20173;-47
2022/06/30 10:04:56;;;;;;;0.40;0.10;;;23.80;45.40;;;;;;5908241;28;21763;-47
2022/06/30 10:07:59;;;;;;;0.95;0.10;;;23.80;45.20;;;;;;5950130;28;20300;-45
2022/06/30 10:11:01;;;;;;;0.20;0.10;;;23.80;45.00;;;;;;5981289;28;24209;-46
2022/06/30 10:14:03;;;;;;;0.20;0.08;;;23.80;44.80;;;;;;5988962;28;21392;-44
2022/06/30 10:17:08;;;;;;;0.10;0.10;;;23.80;44.60;;;;;;5970550;28;20057;-45
2022/06/30 10:20:11;;;;;;;0.22;0.10;;;23.80;44.80;;;;;;5969995;28;20060;-45
2022/06/30 10:23:13;;;;;;;0.30;0.10;;;23.80;44.40;;;;;;5985570;28;20053;-46
2022/06/30 10:29:32;;;;;;;0.45;0.10;;;23.80;44.10;;;;;;5972363;28;22775;-44
2022/06/30 10:32:51;;;;;;;0.38;0.30;;;23.80;44.00;;;;;;6014344;28;20049;-48
2022/06/30 10:36:04;;;;;;;0.17;0.10;;;23.80;43.80;;;;;;6024430;28;20045;-46
2022/06/30 10:39:16;;;;;;;1.13;0.08;;;23.80;43.60;;;;;;6032931;28;21427;-48
2022/06/30 10:42:41;;;;;;;0.43;0.20;;;23.80;43.30;;;;;;6041751;28;20053;-45
2022/06/30 10:45:55;;;;;;;0.20;0.10;;;23.80;43.10;;;;;;6052199;28;21613;-45
2022/06/30 10:48:57;;;;;;;0.22;0.10;;;23.90;43.00;;;;;;6049876;28;21254;-46
2022/06/30 10:52:23;;;;;;;0.20;0.10;;;23.80;42.90;;;;;;6042630;28;20079;-47
2022/06/30 10:55:25;;;;;;;0.10;0.10;;;23.80;42.80;;;;;;6058556;28;21205;-44
2022/06/30 10:58:27;;;;;;;0.13;0.05;;;23.90;42.90;;;;;;6076837;28;20168;-44
2022/06/30 11:01:29;;;;;;;0.85;0.35;;;23.90;43.00;;;;;;6077848;28;20057;-46
2022/06/30 11:04:32;;;;;;;0.17;0.10;;;24.50;43.20;;;;;;6065417;28;20138;-47
2022/06/30 11:07:33;;;;;;;0.40;0.20;;;23.80;42.70;;;;;;6070516;28;20077;-44
2022/06/30 11:10:35;;;;;;;0.00;0.00;;;24.10;42.70;;;;;;6062080;28;20050;-47
2022/06/30 11:13:36;;;;;;;0.20;0.03;;;24.00;42.50;;;;;;6050395;28;21132;-46
2022/06/30 11:16:39;;;;;;;0.20;0.10;;;23.90;42.30;;;;;;6062905;28;21260;-47
2022/06/30 11:19:42;;;;;;;0.20;0.20;;;24.00;42.20;;;;;;6019580;28;20089;-45
2022/06/30 11:22:44;;;;;;;0.30;0.17;;;24.00;42.20;;;;;;6045778;28;20177;-48
2022/06/30 11:29:10;;;;;;;0.10;0.10;;;23.90;42.10;;;;;;6036099;28;20081;-47
2022/06/30 11:32:12;;;;;;;0.30;0.10;;;24.00;42.10;;;;;;6049272;28;20052;-49
2022/06/30 11:35:14;;;;;;;0.35;0.10;;;24.00;42.10;;;;;;6014168;28;20042;-49
2022/06/30 11:38:25;;;;;;;0.25;0.10;;;24.10;42.10;;;;;;6041765;28;20133;-46
2022/06/30 11:44:44;;;;;;;0.10;0.00;;;24.10;42.10;;;;;;6012921;28;20978;-44
2022/06/30 11:47:52;;;;;;;0.08;0.03;;;24.10;42.10;;;;;;6023854;28;20050;-45
2022/06/30 11:50:54;;;;;;;0.10;0.10;;;24.10;42.00;;;;;;6027300;28;20184;-46
2022/06/30 11:53:56;;;;;;;1.27;0.22;;;24.00;42.00;;;;;;6014174;28;21342;-44
2022/06/30 11:57:00;;;;;;;0.55;0.20;;;24.20;42.00;;;;;;5974704;28;20039;-46
2022/06/30 12:00:05;;;;;;;0.47;0.15;;;24.30;41.90;;;;;;5988882;28;20054;-45
2022/06/30 12:03:12;;;;;;;0.45;0.20;;;24.20;41.60;;;;;;5996147;28;20129;-47
2022/06/30 12:06:17;;;;;;;1.33;0.32;;;24.20;41.50;;;;;;5941472;28;20046;-48
2022/06/30 12:09:18;;;;;;;1.45;0.20;;;24.20;41.30;;;;;;5949280;28;20086;-44
2022/06/30 12:12:23;;;;;;;0.60;0.32;;;24.30;40.80;;;;;;5925462;28;20055;-44
2022/06/30 12:15:24;;;;;;;0.65;0.20;;;24.30;40.60;;;;;;5938924;28;20133;-47
2022/06/30 12:18:26;;;;;;;1.60;0.30;;;24.20;40.60;;;;;;5972254;28;20058;-45
2022/06/30 12:21:32;;;;;;;0.35;0.10;;;24.20;40.50;;;;;;5970063;28;21512;-48
2022/06/30 12:24:35;;;;;;;0.55;0.20;;;24.30;40.30;;;;;;5966701;28;20094;-49
2022/06/30 12:27:38;;;;;;;0.60;0.22;;;24.30;40.00;;;;;;5974745;28;20383;-48
2022/06/30 12:30:40;;;;;;;0.80;0.20;;;24.30;39.70;;;;;;5958413;28;20061;-48
2022/06/30 12:33:42;;;;;;;0.73;0.20;;;24.40;39.80;;;;;;5951205;28;20166;-44
2022/06/30 12:36:47;;;;;;;0.10;0.10;;;24.30;39.60;;;;;;5978095;28;20046;-49
2022/06/30 12:39:48;;;;;;;0.10;0.10;;;24.30;39.30;;;;;;5973014;28;20062;-46
2022/06/30 12:42:52;;;;;;;0.50;0.20;;;24.30;39.20;;;;;;5974380;28;20051;-46
2022/06/30 12:45:55;;;;;;;0.73;0.20;;;24.40;39.00;;;;;;5968064;28;20137;-45
2022/06/30 12:48:57;;;;;;;0.35;0.20;;;24.40;39.00;;;;;;5974769;28;20051;-46
2022/06/30 12:52:00;;;;;;;0.30;0.10;;;24.30;39.00;;;;;;5960958;28;20052;-48
2022/06/30 12:55:01;;;;;;;0.50;0.20;;;24.20;39.00;;;;;;5964907;28;20048;-45
2022/06/30 12:58:03;;;;;;;0.30;0.20;;;24.40;39.20;;;;;;5969718;28;20043;-48
2022/06/30 13:01:05;;;;;;;1.35;0.43;;;24.40;39.00;;;;;;5950910;28;20060;-46
2022/06/30 13:04:08;;;;;;;0.38;0.25;;;24.40;38.90;;;;;;5950701;28;21938;-45
2022/06/30 13:07:10;;;;;;;0.55;0.47;;;24.40;38.80;;;;;;5929136;28;20133;-45
2022/06/30 13:10:12;;;;;;;0.60;0.30;;;24.40;38.90;;;;;;5923267;28;20050;-49
2022/06/30 13:13:14;;;;;;;0.77;0.30;;;24.40;39.00;;;;;;5975635;28;20046;-47
2022/06/30 13:16:17;;;;;;;0.50;0.40;;;24.50;39.10;;;;;;5974848;28;20044;-49
2022/06/30 13:19:24;;;;;;;0.60;0.20;;;24.40;39.20;;;;;;5941730;28;20148;-47
2022/06/30 13:22:26;;;;;;;0.30;0.20;;;24.50;39.40;;;;;;5963736;28;26878;-46
2022/06/30 13:25:29;;;;;;;0.30;0.20;;;24.40;39.50;;;;;;5960990;28;20241;-43
2022/06/30 13:28:30;;;;;;;0.77;0.30;;;24.40;39.60;;;;;;5961960;28;22091;-50
2022/06/30 13:31:32;;;;;;;0.85;0.30;;;24.40;39.80;;;;;;5976035;28;20053;-45
2022/06/30 13:34:34;;;;;;;0.10;0.10;;;24.40;40.00;;;;;;5967289;28;20121;-47
2022/06/30 13:37:37;;;;;;;0.20;0.20;;;24.50;40.30;;;;;;5925005;28;20168;-46
2022/06/30 13:40:38;;;;;;;0.20;0.15;;;24.50;40.30;;;;;;5932610;28;20177;-46
2022/06/30 13:43:40;;;;;;;0.30;0.20;;;24.40;40.30;;;;;;5934645;28;20161;-47
2022/06/30 13:46:48;;;;;;;0.20;0.10;;;24.40;40.40;;;;;;5942646;28;22716;-45
2022/06/30 13:49:49;;;;;;;0.28;0.17;;;24.50;40.60;;;;;;5937590;28;20192;-47
2022/06/30 13:52:52;;;;;;;0.15;0.10;;;24.40;40.60;;;;;;5899640;28;20045;-48
2022/06/30 13:56:00;;;;;;;1.63;0.28;;;24.40;40.70;;;;;;5904399;28;20054;-46
2022/06/30 13:59:04;;;;;;;1.05;0.20;;;24.40;40.90;;;;;;5917422;28;20056;-48
2022/06/30 14:02:05;;;;;;;0.70;0.10;;;24.40;41.60;;;;;;5935149;28;20248;-44
2022/06/30 14:05:08;;;;;;;0.20;0.13;;;24.40;41.00;;;;;;5963766;28;20094;-45
2022/06/30 14:08:10;;;;;;;0.35;0.10;;;24.40;40.90;;;;;;5934811;28;20050;-49
2022/06/30 14:11:12;;;;;;;0.10;0.03;;;24.40;40.90;;;;;;5960707;28;20058;-45
2022/06/30 14:14:28;;;;;;;0.68;0.10;;;24.30;40.50;;;;;;6198266;27;20260;-47
2022/06/30 14:17:30;;;;;;;0.20;0.10;;;24.20;40.20;;;;;;6183145;27;20902;-46
2022/06/30 14:20:32;;;;;;;0.13;0.10;;;24.30;40.10;;;;;;6196594;27;20038;-47
2022/06/30 14:23:35;;;;;;;0.28;0.13;;;24.40;40.00;;;;;;6193168;27;20034;-47
2022/06/30 14:26:43;;;;;;;0.35;0.25;;;24.40;39.80;;;;;;6164600;27;22269;-46
2022/06/30 14:29:54;;;;;;;0.10;0.10;;;24.40;39.60;;;;;;6148586;27;20051;-48
2022/06/30 14:32:56;;;;;;;0.50;0.20;;;24.50;39.60;;;;;;6151705;27;20054;-48
2022/06/30 14:35:58;;;;;;;0.43;0.10;;;24.30;39.40;;;;;;6167765;27;20299;-47
2022/06/30 14:38:59;;;;;;;0.30;0.20;;;24.30;39.40;;;;;;6157882;27;20165;-50
2022/06/30 14:45:26;;;;;;;0.47;0.10;;;24.30;39.40;;;;;;6169587;27;20150;-45
2022/06/30 14:48:27;;;;;;;0.47;0.10;;;24.50;39.50;;;;;;6166205;27;22038;-48
2022/06/30 14:51:45;;;;;;;0.15;0.00;;;24.40;39.60;;;;;;6167517;27;20035;-51
2022/06/30 14:54:47;;;;;;;0.20;0.13;;;24.40;39.80;;;;;;6174617;27;20051;-46
2022/06/30 14:57:58;;;;;;;0.32;0.20;;;24.40;39.80;;;;;;6157714;27;20046;-48
2022/06/30 15:01:09;;;;;;;0.20;0.10;;;24.40;39.80;;;;;;6155221;27;22365;-46
2022/06/30 15:04:11;;;;;;;0.30;0.20;;;24.40;40.00;;;;;;6162419;27;21782;-50
2022/06/30 15:07:13;;;;;;;0.93;0.20;;;24.40;40.10;;;;;;6171471;27;20066;-45
2022/06/30 15:10:14;;;;;;;0.10;0.10;;;24.40;40.30;;;;;;6133761;27;20034;-49
2022/06/30 15:13:16;;;;;;;0.10;0.10;;;24.30;40.30;;;;;;6122250;27;22567;-48
2022/06/30 15:16:26;;;;;;;0.10;0.10;;;24.40;40.20;;;;;;6177580;27;20123;-50
2022/06/30 15:19:28;;;;;;;0.15;0.10;;;24.40;39.70;;;;;;6167156;27;21037;-47
2022/06/30 15:25:45;;;;;;;0.30;0.17;;;24.40;39.20;;;;;;6130666;27;20597;-46
2022/06/30 15:28:55;;;;;;;0.10;0.10;;;24.40;39.00;;;;;;6162889;27;20049;-44
2022/06/30 15:32:07;;;;;;;0.00;0.00;;;24.40;39.00;;;;;;6172831;27;20182;-45
2022/06/30 15:35:08;;;;;;;0.10;0.10;;;24.40;38.90;;;;;;6168113;27;20090;-44
2022/06/30 15:38:18;;;;;;;0.28;0.13;;;24.40;39.00;;;;;;6188521;27;20290;-45
2022/06/30 15:41:19;;;;;;;0.10;0.10;;;24.40;39.10;;;;;;6191206;27;20193;-44
2022/06/30 15:44:21;;;;;;;0.10;0.10;;;24.40;39.30;;;;;;6176836;27;20318;-43
2022/06/30 15:47:26;;;;;;;0.43;0.28;;;24.50;39.30;;;;;;6161466;27;20169;-45
2022/06/30 15:50:27;;;;;;;0.10;0.10;;;24.50;39.40;;;;;;6160283;27;20039;-43
2022/06/30 15:53:29;;;;;;;0.55;0.20;;;24.40;39.40;;;;;;6150761;27;21332;-45
2022/06/30 15:56:31;;;;;;;0.08;0.00;;;24.30;39.40;;;;;;6157815;27;20035;-45
2022/06/30 15:59:41;;;;;;;0.10;0.10;;;24.40;39.50;;;;;;6193486;27;20043;-48
2022/06/30 16:02:54;;;;;;;0.10;0.10;;;24.40;39.60;;;;;;6159247;27;20064;-43
2022/06/30 16:06:01;;;;;;;0.32;0.20;;;24.50;39.70;;;;;;6163506;27;20272;-48
2022/06/30 16:09:02;;;;;;;0.90;0.10;;;24.50;39.80;;;;;;6173283;27;20078;-45
2022/06/30 16:12:05;;;;;;;0.10;0.00;;;24.40;39.80;;;;;;6193414;27;22831;-46
2022/06/30 16:15:07;;;;;;;0.10;0.10;;;24.40;39.90;;;;;;6216413;27;20153;-44
2022/06/30 16:18:16;;;;;;;0.20;0.10;;;24.40;40.00;;;;;;6208402;27;20907;-46
2022/06/30 16:21:18;;;;;;;0.10;0.10;;;24.40;40.30;;;;;;6230535;27;20078;-44
2022/06/30 16:24:19;;;;;;;0.15;0.00;;;24.40;40.70;;;;;;6233041;27;20051;-45
2022/06/30 16:27:21;;;;;;;0.15;0.13;;;24.40;41.10;;;;;;6228796;27;20043;-44